createdAt,value
2023-05-09T00:01:52.332Z,52.02
2023-05-09T00:04:23.017Z,52.32
2023-05-09T00:06:53.680Z,52.36
2023-05-09T00:09:24.723Z,52.41
2023-05-09T00:11:53.818Z,52.55
2023-05-09T00:14:24.407Z,52.54
2023-05-09T00:16:55.264Z,52.69
2023-05-09T00:19:24.503Z,52.72
2023-05-09T00:21:55.563Z,52.90
2023-05-09T00:24:24.573Z,52.89
2023-05-09T00:26:55.209Z,53.02
2023-05-09T00:29:25.866Z,53.35
2023-05-09T00:31:56.762Z,53.30
2023-05-09T00:34:27.411Z,53.27
2023-05-09T00:36:58.076Z,53.46
2023-05-09T00:39:28.793Z,53.52
2023-05-09T00:41:59.434Z,53.52
2023-05-09T00:44:30.217Z,53.70
2023-05-09T00:47:00.872Z,53.79
2023-05-09T00:49:31.566Z,53.82
2023-05-09T00:52:02.771Z,54.01
2023-05-09T00:54:33.429Z,54.07
2023-05-09T00:57:04.265Z,54.09
2023-05-09T00:59:35.301Z,54.47
2023-05-09T01:02:04.382Z,54.29
2023-05-09T01:04:35.356Z,54.38
2023-05-09T01:07:11.555Z,54.50
2023-05-09T01:09:50.653Z,54.49
2023-05-09T01:12:31.418Z,54.67
2023-05-09T01:15:08.360Z,54.59
2023-05-09T01:17:45.912Z,54.74
2023-05-09T01:20:23.245Z,54.80
2023-05-09T01:23:11.887Z,54.68
2023-05-09T01:26:05.756Z,54.86
2023-05-09T01:29:02.129Z,54.87
2023-05-09T01:31:34.835Z,54.98
2023-05-09T01:34:08.088Z,55.05
2023-05-09T01:36:40.393Z,55.09
2023-05-09T01:39:13.736Z,55.02
2023-05-09T01:41:46.001Z,55.09
2023-05-09T01:44:17.851Z,54.98
2023-05-09T01:46:50.437Z,55.11
2023-05-09T01:49:22.047Z,55.37
2023-05-09T01:51:54.730Z,55.54
2023-05-09T01:54:26.582Z,55.47
2023-05-09T01:56:57.982Z,55.61
2023-05-09T01:59:30.126Z,55.66
2023-05-09T02:02:01.579Z,55.90
2023-05-09T02:04:32.967Z,56.32
2023-05-09T02:07:05.250Z,56.46
2023-05-09T02:09:36.347Z,56.88
2023-05-09T02:12:05.896Z,57.01
2023-05-09T02:14:36.512Z,57.11
2023-05-09T02:17:07.210Z,57.06
2023-05-09T02:19:37.906Z,56.99
2023-05-09T02:22:09.504Z,57.44
2023-05-09T02:24:40.447Z,57.54
2023-05-09T02:27:12.948Z,57.83
2023-05-09T02:29:47.479Z,57.79
2023-05-09T02:32:22.067Z,58.24
2023-05-09T02:34:54.540Z,57.83
2023-05-09T02:37:25.476Z,58.29
2023-05-09T02:39:56.699Z,58.32
2023-05-09T02:42:27.836Z,58.34
2023-05-09T02:44:57.029Z,58.34
2023-05-09T02:47:27.710Z,58.66
2023-05-09T02:49:58.367Z,58.70
2023-05-09T02:52:28.972Z,58.33
2023-05-09T02:55:00.046Z,58.33
2023-05-09T02:57:29.087Z,58.42
2023-05-09T02:59:59.678Z,58.54
2023-05-09T03:02:30.438Z,58.33
2023-05-09T03:05:01.160Z,58.31
2023-05-09T03:07:32.072Z,58.20
2023-05-09T03:10:02.771Z,58.16
2023-05-09T03:12:33.472Z,58.09
2023-05-09T03:15:04.670Z,58.19
2023-05-09T03:17:35.422Z,58.12
2023-05-09T03:20:08.615Z,58.05
2023-05-09T03:22:39.373Z,58.09
2023-05-09T03:25:10.388Z,58.04
2023-05-09T03:27:41.570Z,57.88
2023-05-09T03:30:14.442Z,57.83
2023-05-09T03:32:45.104Z,57.66
2023-05-09T03:35:16.022Z,57.64
2023-05-09T03:37:46.936Z,57.48
2023-05-09T03:40:17.832Z,57.44
2023-05-09T03:42:48.458Z,57.37
2023-05-09T03:45:19.117Z,57.17
2023-05-09T03:47:49.725Z,57.20
2023-05-09T03:50:20.454Z,57.03
2023-05-09T03:52:51.105Z,56.92
2023-05-09T03:55:22.587Z,56.91
2023-05-09T03:57:53.631Z,56.96
2023-05-09T04:00:22.930Z,56.98
2023-05-09T04:02:53.810Z,57.14
2023-05-09T04:05:24.590Z,57.00
2023-05-09T04:07:55.362Z,56.93
2023-05-09T04:10:26.033Z,56.93
2023-05-09T04:12:56.806Z,56.51
2023-05-09T04:15:26.046Z,55.27
2023-05-09T04:17:56.681Z,52.21
2023-05-09T04:20:27.646Z,50.78
2023-05-09T04:22:58.294Z,48.09
2023-05-09T04:25:27.432Z,46.47
2023-05-09T04:27:58.067Z,45.33
2023-05-09T04:30:28.747Z,43.53
2023-05-09T04:32:59.403Z,42.78
2023-05-09T04:35:30.061Z,41.52
2023-05-09T04:38:00.651Z,39.84
2023-05-09T04:40:31.313Z,38.02
2023-05-09T04:43:02.000Z,37.21
2023-05-09T04:45:32.686Z,37.35
2023-05-09T04:48:03.538Z,35.46
2023-05-09T04:50:34.284Z,35.88
2023-05-09T04:53:04.986Z,32.64
2023-05-09T04:55:41.740Z,34.10
2023-05-09T04:58:12.435Z,33.19
2023-05-09T05:00:43.190Z,32.92
2023-05-09T05:03:13.839Z,33.17
2023-05-09T05:05:44.647Z,33.60
2023-05-09T05:08:15.420Z,33.34
2023-05-09T05:10:46.100Z,32.56
2023-05-09T05:13:17.099Z,32.03
2023-05-09T05:15:48.075Z,31.59
2023-05-09T05:18:18.888Z,31.54
2023-05-09T05:20:49.568Z,31.59
2023-05-09T05:23:20.216Z,31.49
2023-05-09T05:25:51.681Z,31.46
2023-05-09T05:28:22.300Z,32.20
2023-05-09T05:30:52.926Z,32.62
2023-05-09T05:33:23.571Z,33.06
2023-05-09T05:35:54.224Z,33.24
2023-05-09T05:38:24.867Z,33.48
2023-05-09T05:40:55.524Z,33.97
2023-05-09T05:43:26.146Z,34.26
2023-05-09T05:45:55.974Z,34.71
2023-05-09T05:48:26.686Z,35.09
2023-05-09T05:50:55.778Z,35.60
2023-05-09T05:53:26.389Z,36.12
2023-05-09T05:55:55.613Z,36.75
2023-05-09T05:58:26.266Z,37.39
2023-05-09T06:00:56.894Z,37.81
2023-05-09T06:03:27.635Z,38.22
2023-05-09T06:05:56.826Z,38.62
2023-05-09T06:08:27.510Z,39.05
2023-05-09T06:10:58.141Z,39.30
2023-05-09T06:13:28.928Z,39.28
2023-05-09T06:16:07.699Z,39.69
2023-05-09T06:18:46.147Z,39.98
2023-05-09T06:21:17.548Z,40.20
2023-05-09T06:24:05.970Z,40.72
2023-05-09T06:26:38.829Z,40.68
2023-05-09T06:29:09.488Z,40.82
2023-05-09T06:31:40.143Z,41.19
2023-05-09T06:34:10.835Z,41.00
2023-05-09T06:36:41.725Z,41.38
2023-05-09T06:39:10.809Z,41.00
2023-05-09T06:41:41.379Z,41.13
2023-05-09T06:44:12.063Z,41.13
2023-05-09T06:46:41.357Z,40.98
2023-05-09T06:49:12.195Z,40.94
2023-05-09T06:51:42.820Z,40.72
2023-05-09T06:54:13.462Z,40.95
2023-05-09T06:56:44.106Z,40.94
2023-05-09T06:59:14.785Z,40.96
2023-05-09T07:01:45.490Z,41.25
2023-05-09T07:04:16.240Z,41.51
2023-05-09T07:06:46.854Z,41.57
2023-05-09T07:09:17.525Z,41.29
2023-05-09T07:11:48.158Z,41.37
2023-05-09T07:14:18.944Z,41.09
2023-05-09T07:16:49.753Z,40.78
2023-05-09T07:19:18.900Z,40.92
2023-05-09T07:22:00.272Z,40.89
2023-05-09T07:24:35.180Z,40.72
2023-05-09T07:31:12.975Z,40.21
2023-05-09T07:33:45.702Z,40.27
2023-05-09T07:36:16.396Z,40.69
2023-05-09T07:38:47.718Z,40.77
2023-05-09T07:41:18.958Z,41.02
2023-05-09T07:44:46.627Z,40.87
2023-05-09T07:47:27.067Z,40.75
2023-05-09T07:49:58.422Z,41.07
2023-05-09T07:52:36.801Z,40.47
2023-05-09T07:55:10.885Z,40.33
2023-05-09T07:57:42.607Z,40.12
2023-05-09T08:00:17.027Z,39.63
2023-05-09T08:02:47.674Z,39.07
2023-05-09T08:05:18.927Z,39.00
2023-05-09T08:07:49.635Z,39.06
2023-05-09T08:10:20.280Z,39.27
2023-05-09T08:12:51.071Z,38.42
2023-05-09T08:15:21.766Z,38.55
2023-05-09T08:17:52.494Z,38.88
2023-05-09T08:20:21.582Z,38.35
2023-05-09T08:22:52.204Z,38.52
2023-05-09T08:25:22.821Z,38.22
2023-05-09T08:27:53.569Z,38.25
2023-05-09T08:30:24.340Z,37.81
2023-05-09T08:32:55.132Z,38.32
2023-05-09T08:35:24.210Z,38.62
2023-05-09T08:37:55.045Z,37.85
2023-05-09T08:40:24.132Z,37.27
2023-05-09T08:42:55.115Z,36.70
2023-05-09T08:45:29.305Z,35.43
2023-05-09T08:48:02.563Z,36.55
2023-05-09T08:50:33.652Z,35.56
2023-05-09T08:53:04.335Z,35.96
2023-05-09T08:55:34.928Z,36.20
2023-05-09T08:58:06.631Z,36.24
2023-05-09T09:00:39.200Z,36.28
2023-05-09T09:03:10.069Z,36.82
2023-05-09T09:05:44.845Z,35.60
2023-05-09T09:08:16.168Z,36.39
2023-05-09T09:10:47.796Z,35.51
2023-05-09T09:13:20.481Z,35.93
2023-05-09T09:15:53.022Z,35.20
2023-05-09T09:18:29.358Z,35.41
2023-05-09T09:21:07.067Z,35.72
2023-05-09T09:23:39.842Z,34.35
2023-05-09T09:26:10.545Z,34.30
2023-05-09T09:28:41.362Z,34.09
2023-05-09T09:31:23.526Z,34.17
2023-05-09T09:33:58.920Z,34.61
2023-05-09T09:36:30.517Z,35.06
2023-05-09T09:39:58.778Z,34.28
2023-05-09T09:46:05.173Z,34.61
2023-05-09T09:49:29.501Z,34.85
2023-05-09T09:52:01.077Z,33.41
2023-05-09T09:54:33.435Z,34.58
2023-05-09T09:57:04.274Z,34.00
2023-05-09T09:59:33.380Z,33.70
2023-05-09T10:02:07.632Z,34.16
2023-05-09T10:04:39.821Z,34.05
2023-05-09T10:07:14.873Z,33.75
2023-05-09T10:09:46.053Z,34.04
2023-05-09T10:12:17.360Z,33.77
2023-05-09T10:14:48.937Z,34.25
2023-05-09T10:17:21.702Z,34.45
2023-05-09T10:20:14.376Z,34.20
2023-05-09T10:23:03.128Z,33.04
2023-05-09T10:25:40.522Z,32.90
2023-05-09T10:28:14.709Z,32.68
2023-05-09T10:30:56.701Z,32.94
2023-05-09T10:33:31.691Z,33.20
2023-05-09T10:36:03.006Z,32.66
2023-05-09T10:38:33.915Z,32.82
2023-05-09T10:41:03.114Z,33.27
2023-05-09T10:43:36.600Z,33.40
2023-05-09T10:46:08.389Z,33.21
2023-05-09T10:48:40.084Z,33.25
2023-05-09T10:51:11.937Z,32.90
2023-05-09T10:53:47.158Z,32.86
2023-05-09T10:56:34.730Z,33.43
2023-05-09T10:59:06.101Z,33.15
2023-05-09T11:01:35.891Z,32.42
2023-05-09T11:04:13.082Z,32.93
2023-05-09T11:06:47.026Z,32.28
2023-05-09T11:09:32.342Z,31.88
2023-05-09T11:12:15.280Z,32.40
2023-05-09T11:14:47.134Z,32.19
2023-05-09T11:17:29.883Z,32.38
2023-05-09T11:20:03.419Z,32.73
2023-05-09T11:22:41.273Z,32.25
2023-05-09T11:25:14.233Z,32.16
2023-05-09T11:27:46.630Z,31.52
2023-05-09T11:30:20.003Z,32.38
2023-05-09T11:32:53.278Z,31.64
2023-05-09T11:35:25.513Z,32.04
2023-05-09T11:38:02.991Z,31.58
2023-05-09T11:40:37.388Z,32.41
2023-05-09T11:43:08.690Z,31.54
2023-05-09T11:45:40.694Z,32.02
2023-05-09T11:48:11.519Z,30.81
2023-05-09T11:50:40.733Z,31.92
2023-05-09T11:53:13.360Z,32.03
2023-05-09T11:55:44.078Z,31.55
2023-05-09T11:58:13.431Z,31.78
2023-05-09T12:00:48.559Z,32.14
2023-05-09T12:03:19.465Z,32.68
2023-05-09T12:05:50.960Z,31.68
2023-05-09T12:08:24.019Z,31.41
2023-05-09T12:10:54.680Z,31.55
2023-05-09T12:13:25.630Z,31.49
2023-05-09T12:16:03.043Z,30.40
2023-05-09T12:18:34.668Z,31.51
2023-05-09T12:21:07.237Z,31.70
2023-05-09T12:24:09.992Z,30.98
2023-05-09T12:26:53.272Z,30.66
2023-05-09T12:29:24.304Z,30.99
2023-05-09T12:31:55.348Z,31.45
2023-05-09T12:34:26.366Z,31.22
2023-05-09T12:36:57.696Z,30.65
2023-05-09T12:39:28.384Z,30.28
2023-05-09T12:42:15.514Z,31.08
2023-05-09T12:44:51.182Z,31.71
2023-05-09T12:47:22.195Z,31.38
2023-05-09T12:49:53.015Z,31.66
2023-05-09T12:52:23.819Z,31.17
2023-05-09T12:54:55.271Z,31.10
2023-05-09T12:57:26.505Z,31.24
2023-05-09T13:00:01.825Z,31.39
2023-05-09T13:02:37.312Z,31.30
2023-05-09T13:05:10.744Z,31.57
2023-05-09T13:07:42.719Z,31.30
2023-05-09T13:10:14.826Z,31.35
2023-05-09T13:12:45.661Z,30.76
2023-05-09T13:15:17.000Z,31.05
2023-05-09T13:17:48.133Z,31.46
2023-05-09T13:20:19.612Z,31.59
2023-05-09T13:22:50.341Z,31.44
2023-05-09T13:25:21.334Z,31.09
2023-05-09T13:27:52.080Z,30.89
2023-05-09T13:30:21.242Z,31.00
2023-05-09T13:32:51.836Z,31.28
2023-05-09T13:35:21.132Z,31.12
2023-05-09T13:37:51.754Z,30.68
2023-05-09T13:40:21.022Z,29.64
2023-05-09T13:42:51.772Z,30.19
2023-05-09T13:45:22.639Z,29.96
2023-05-09T13:47:53.455Z,30.89
2023-05-09T13:50:22.673Z,30.18
2023-05-09T13:52:53.281Z,30.81
2023-05-09T13:55:23.938Z,29.77
2023-05-09T13:57:53.241Z,30.23
2023-05-09T14:00:26.152Z,30.38
2023-05-09T14:02:56.877Z,30.65
2023-05-09T14:05:26.072Z,30.04
2023-05-09T14:07:56.964Z,30.07
2023-05-09T14:10:27.794Z,30.29
2023-05-09T14:12:58.501Z,30.56
2023-05-09T14:15:27.658Z,30.07
2023-05-09T14:17:58.383Z,30.75
2023-05-09T14:20:27.620Z,30.56
2023-05-09T14:22:58.225Z,30.52
2023-05-09T14:25:27.265Z,30.53
2023-05-09T14:27:57.904Z,30.44
2023-05-09T14:30:28.769Z,30.68
2023-05-09T14:32:59.955Z,30.94
2023-05-09T14:35:30.696Z,30.85
2023-05-09T14:37:59.782Z,30.94
2023-05-09T14:40:30.643Z,30.14
2023-05-09T14:43:01.867Z,30.26
2023-05-09T14:45:33.370Z,30.01
2023-05-09T14:48:06.631Z,29.99
2023-05-09T14:50:37.394Z,29.98
2023-05-09T14:53:06.516Z,30.14
2023-05-09T14:55:40.992Z,29.71
2023-05-09T14:58:32.248Z,29.94
2023-05-09T15:01:01.520Z,30.08
2023-05-09T15:03:32.242Z,29.68
2023-05-09T15:06:01.401Z,30.19
2023-05-09T15:08:32.160Z,30.04
2023-05-09T15:11:01.265Z,29.89
2023-05-09T15:13:32.117Z,29.80
2023-05-09T15:16:02.928Z,29.90
2023-05-09T15:18:33.506Z,30.17
2023-05-09T15:21:05.825Z,30.07
2023-05-09T15:23:36.677Z,30.09
2023-05-09T15:26:07.723Z,30.27
2023-05-09T15:28:38.400Z,30.10
2023-05-09T15:31:07.524Z,30.06
2023-05-09T15:33:38.275Z,30.01
2023-05-09T15:36:09.314Z,30.09
2023-05-09T15:38:39.927Z,30.30
2023-05-09T15:41:10.700Z,29.47
2023-05-09T15:43:39.782Z,29.95
2023-05-09T15:46:10.619Z,29.68
2023-05-09T15:48:41.303Z,29.83
2023-05-09T15:51:10.518Z,30.01
2023-05-09T15:53:41.344Z,29.91
2023-05-09T15:56:10.423Z,30.58
2023-05-09T15:58:41.351Z,30.49
2023-05-09T16:01:12.125Z,30.67
2023-05-09T16:03:41.310Z,30.74
2023-05-09T16:06:12.147Z,30.93
2023-05-09T16:08:41.174Z,30.61
2023-05-09T16:11:12.091Z,30.67
2023-05-09T16:13:42.768Z,30.76
2023-05-09T16:16:13.482Z,30.70
2023-05-09T16:18:42.555Z,31.06
2023-05-09T16:21:13.312Z,30.74
2023-05-09T16:23:44.060Z,30.48
2023-05-09T16:26:13.123Z,30.58
2023-05-09T16:28:43.740Z,30.81
2023-05-09T16:31:14.435Z,30.64
2023-05-09T16:33:43.624Z,30.68
2023-05-09T16:36:14.345Z,30.61
2023-05-09T16:38:45.018Z,30.86
2023-05-09T16:41:14.357Z,30.75
2023-05-09T16:43:45.082Z,30.74
2023-05-09T16:46:15.894Z,30.78
2023-05-09T16:48:45.004Z,31.17
2023-05-09T16:51:16.236Z,30.95
2023-05-09T16:53:47.197Z,31.26
2023-05-09T16:56:17.858Z,31.25
2023-05-09T16:58:48.503Z,31.15
2023-05-09T17:01:19.229Z,31.11
2023-05-09T17:03:48.313Z,31.17
2023-05-09T17:06:19.117Z,31.38
2023-05-09T17:08:49.807Z,31.35
2023-05-09T17:11:20.493Z,31.48
2023-05-09T17:13:51.136Z,31.58
2023-05-09T17:16:21.835Z,31.73
2023-05-09T17:18:52.431Z,31.79
2023-05-09T17:21:23.137Z,31.85
2023-05-09T17:23:53.731Z,31.97
2023-05-09T17:26:24.360Z,32.04
2023-05-09T17:28:53.488Z,32.06
2023-05-09T17:31:24.112Z,32.40
2023-05-09T17:33:54.835Z,32.06
2023-05-09T17:36:25.544Z,31.96
2023-05-09T17:38:56.224Z,32.08
2023-05-09T17:41:26.881Z,32.38
2023-05-09T17:43:57.697Z,32.17
2023-05-09T17:46:26.749Z,32.42
2023-05-09T17:48:57.752Z,32.32
2023-05-09T17:51:28.423Z,32.22
2023-05-09T17:53:59.125Z,32.51
2023-05-09T17:56:28.168Z,32.67
2023-05-09T17:59:00.231Z,32.79
2023-05-09T18:01:30.989Z,32.80
2023-05-09T18:04:01.894Z,33.04
2023-05-09T18:06:31.039Z,33.30
2023-05-09T18:09:01.723Z,33.33
2023-05-09T18:11:32.397Z,33.36
2023-05-09T18:14:03.394Z,33.69
2023-05-09T18:16:35.841Z,33.83
2023-05-09T18:19:06.636Z,34.09
2023-05-09T18:21:37.344Z,34.23
2023-05-09T18:24:10.017Z,34.28
2023-05-09T18:26:40.671Z,34.54
2023-05-09T18:29:11.529Z,34.56
2023-05-09T18:31:42.283Z,34.91
2023-05-09T18:34:13.001Z,34.91
2023-05-09T18:36:43.715Z,35.38
2023-05-09T18:39:14.512Z,35.44
2023-05-09T18:41:45.137Z,35.39
2023-05-09T18:44:15.807Z,35.66
2023-05-09T18:46:46.772Z,35.69
2023-05-09T18:49:15.919Z,35.90
2023-05-09T18:51:48.973Z,36.02
2023-05-09T18:54:37.080Z,36.21
2023-05-09T18:58:34.477Z,36.50
2023-05-09T19:01:58.045Z,36.56
2023-05-09T19:04:23.253Z,36.98
2023-05-09T19:07:33.905Z,37.09
2023-05-09T19:10:15.951Z,37.47
2023-05-09T19:12:52.273Z,37.39
2023-05-09T19:15:49.006Z,37.57
2023-05-09T19:18:58.503Z,37.62
2023-05-09T19:21:32.318Z,38.22
2023-05-09T19:25:11.066Z,38.02
2023-05-09T19:28:01.463Z,38.36
2023-05-09T19:30:50.993Z,38.64
2023-05-09T19:33:31.732Z,39.00
2023-05-09T19:36:03.104Z,38.69
2023-05-09T19:38:54.528Z,38.91
2023-05-09T19:41:30.643Z,38.78
2023-05-09T19:44:01.244Z,38.75
2023-05-09T19:46:32.164Z,39.46
2023-05-09T19:49:02.914Z,39.33
2023-05-09T19:51:33.576Z,39.52
2023-05-09T19:54:04.585Z,39.55
2023-05-09T19:56:33.656Z,39.19
2023-05-09T19:59:04.334Z,39.26
2023-05-09T20:04:05.890Z,39.76
2023-05-09T20:06:35.045Z,39.41
2023-05-09T20:09:05.655Z,39.49
2023-05-09T20:11:36.310Z,39.65
2023-05-09T20:14:07.058Z,39.51
2023-05-09T20:16:37.978Z,40.20
2023-05-09T20:19:08.768Z,40.04
2023-05-09T20:21:39.376Z,40.13
2023-05-09T20:24:10.506Z,39.93
2023-05-09T20:26:41.264Z,40.21
2023-05-09T20:29:13.199Z,40.10
2023-05-09T20:31:44.540Z,39.99
2023-05-09T20:34:15.265Z,40.10
2023-05-09T20:36:47.624Z,40.23
2023-05-09T20:39:18.230Z,40.20
2023-05-09T20:41:49.876Z,40.46
2023-05-09T20:44:22.193Z,40.56
2023-05-09T20:46:52.880Z,40.64
2023-05-09T20:49:23.650Z,40.66
2023-05-09T20:51:54.350Z,40.83
2023-05-09T20:54:25.141Z,41.18
2023-05-09T20:56:55.896Z,40.87
2023-05-09T20:59:26.580Z,40.90
2023-05-09T21:01:57.275Z,40.79
2023-05-09T21:04:28.244Z,41.02
2023-05-09T21:06:57.328Z,41.13
2023-05-09T21:09:27.931Z,41.45
2023-05-09T21:11:58.581Z,41.36
2023-05-09T21:14:29.220Z,41.44
2023-05-09T21:16:59.939Z,41.44
2023-05-09T21:19:30.634Z,41.61
2023-05-09T21:22:01.285Z,41.66
2023-05-09T21:24:31.956Z,41.93
2023-05-09T21:27:02.635Z,41.82
2023-05-09T21:29:33.257Z,42.04
2023-05-09T21:32:04.048Z,42.10
2023-05-09T21:34:34.658Z,42.50
2023-05-09T21:37:05.340Z,42.27
2023-05-09T21:39:35.932Z,42.22
2023-05-09T21:42:06.948Z,42.26
2023-05-09T21:44:37.718Z,42.14
2023-05-09T21:47:08.549Z,42.25
2023-05-09T21:49:37.746Z,42.66
2023-05-09T21:52:08.427Z,42.41
2023-05-09T21:54:39.142Z,42.56
2023-05-09T21:57:09.799Z,42.86
2023-05-09T21:59:40.486Z,42.87
2023-05-09T22:02:11.703Z,42.76
2023-05-09T22:04:42.390Z,42.74
2023-05-09T22:07:13.626Z,43.31
2023-05-09T22:09:44.265Z,42.83
2023-05-09T22:12:14.980Z,42.94
2023-05-09T22:14:55.753Z,43.25
2023-05-09T22:17:26.771Z,43.07
2023-05-09T22:19:57.402Z,43.18
2023-05-09T22:22:28.089Z,43.34
2023-05-09T22:24:58.756Z,43.48
2023-05-09T22:27:29.439Z,43.63
2023-05-09T22:30:00.058Z,43.61
2023-05-09T22:32:30.763Z,43.68
2023-05-09T22:35:01.448Z,43.69
2023-05-09T22:37:32.108Z,43.64
2023-05-09T22:40:03.047Z,44.11
2023-05-09T22:42:33.740Z,44.00
2023-05-09T22:45:05.405Z,43.87
2023-05-09T22:47:36.098Z,43.94
2023-05-09T22:50:09.371Z,43.94
2023-05-09T22:52:40.377Z,43.95
2023-05-09T22:55:11.464Z,44.15
2023-05-09T22:57:42.132Z,44.08
2023-05-09T23:00:15.027Z,44.44
2023-05-09T23:02:46.066Z,44.42
2023-05-09T23:05:16.799Z,44.56
2023-05-09T23:07:47.800Z,44.42
2023-05-09T23:10:17.132Z,44.63
2023-05-09T23:12:48.239Z,44.92
2023-05-09T23:15:19.168Z,44.91
2023-05-09T23:17:48.276Z,44.81
2023-05-09T23:20:19.201Z,44.78
2023-05-09T23:22:48.410Z,44.72
2023-05-09T23:25:19.108Z,44.68
2023-05-09T23:27:49.745Z,44.91
2023-05-09T23:30:20.548Z,45.30
2023-05-09T23:32:51.230Z,45.11
2023-05-09T23:35:22.091Z,44.98
2023-05-09T23:37:52.887Z,45.33
2023-05-09T23:40:23.830Z,45.61
2023-05-09T23:42:52.942Z,45.50
2023-05-09T23:45:23.703Z,45.66
2023-05-09T23:47:55.428Z,45.49
2023-05-09T23:50:26.050Z,45.45
2023-05-09T23:52:56.801Z,45.47
2023-05-09T23:55:27.484Z,45.66
2023-05-09T23:57:58.126Z,45.63
